sensor_id;sensor_type;location;lat;lon;timestamp;pressure;altitude;pressure_sealevel;temperature
21336;BMP180;10826;52.536;13.432;2022-08-16T00:02:04;100124.00;;;26.90
21336;BMP180;10826;52.536;13.432;2022-08-16T00:04:32;100078.00;;;26.90
21336;BMP180;10826;52.536;13.432;2022-08-16T00:06:58;100030.00;;;26.80
21336;BMP180;10826;52.536;13.432;2022-08-16T00:09:24;100133.00;;;26.80
21336;BMP180;10826;52.536;13.432;2022-08-16T00:11:51;100057.00;;;26.80
21336;BMP180;10826;52.536;13.432;2022-08-16T00:14:27;100116.00;;;26.80
21336;BMP180;10826;52.536;13.432;2022-08-16T00:16:54;100106.00;;;26.70
21336;BMP180;10826;52.536;13.432;2022-08-16T00:19:29;100104.00;;;26.70
21336;BMP180;10826;52.536;13.432;2022-08-16T00:21:56;100101.00;;;26.70
21336;BMP180;10826;52.536;13.432;2022-08-16T00:24:24;100069.00;;;26.70
21336;BMP180;10826;52.536;13.432;2022-08-16T00:26:51;100112.00;;;26.70
21336;BMP180;10826;52.536;13.432;2022-08-16T00:29:21;100126.00;;;26.70
21336;BMP180;10826;52.536;13.432;2022-08-16T00:31:50;100099.00;;;26.60
21336;BMP180;10826;52.536;13.432;2022-08-16T00:34:18;100054.00;;;26.60
21336;BMP180;10826;52.536;13.432;2022-08-16T00:36:45;100110.00;;;26.60
21336;BMP180;10826;52.536;13.432;2022-08-16T00:39:16;100131.00;;;26.60
21336;BMP180;10826;52.536;13.432;2022-08-16T00:41:46;100125.00;;;26.60
21336;BMP180;10826;52.536;13.432;2022-08-16T00:44:15;100116.00;;;26.60
21336;BMP180;10826;52.536;13.432;2022-08-16T00:46:56;100123.00;;;26.60
21336;BMP180;10826;52.536;13.432;2022-08-16T00:49:27;100122.00;;;26.60
21336;BMP180;10826;52.536;13.432;2022-08-16T00:51:54;100122.00;;;26.60
21336;BMP180;10826;52.536;13.432;2022-08-16T00:54:24;100108.00;;;26.50
21336;BMP180;10826;52.536;13.432;2022-08-16T00:56:51;100133.00;;;26.50
21336;BMP180;10826;52.536;13.432;2022-08-16T00:59:22;100122.00;;;26.50
21336;BMP180;10826;52.536;13.432;2022-08-16T01:01:50;100120.00;;;26.50
21336;BMP180;10826;52.536;13.432;2022-08-16T01:04:22;100097.00;;;26.50
21336;BMP180;10826;52.536;13.432;2022-08-16T01:06:49;100143.00;;;26.50
21336;BMP180;10826;52.536;13.432;2022-08-16T01:09:17;100149.00;;;26.30
21336;BMP180;10826;52.536;13.432;2022-08-16T01:11:44;100096.00;;;26.40
21336;BMP180;10826;52.536;13.432;2022-08-16T01:14:31;100152.00;;;26.40
21336;BMP180;10826;52.536;13.432;2022-08-16T01:17:00;100150.00;;;26.40
21336;BMP180;10826;52.536;13.432;2022-08-16T01:19:39;100115.00;;;26.40
21336;BMP180;10826;52.536;13.432;2022-08-16T01:22:37;100154.00;;;26.40
21336;BMP180;10826;52.536;13.432;2022-08-16T01:25:29;100145.00;;;26.40
21336;BMP180;10826;52.536;13.432;2022-08-16T01:27:59;100142.00;;;26.30
21336;BMP180;10826;52.536;13.432;2022-08-16T01:30:34;100151.00;;;26.40
21336;BMP180;10826;52.536;13.432;2022-08-16T01:33:04;100139.00;;;26.40
21336;BMP180;10826;52.536;13.432;2022-08-16T01:35:50;100155.00;;;26.40
21336;BMP180;10826;52.536;13.432;2022-08-16T01:38:40;100163.00;;;26.30
21336;BMP180;10826;52.536;13.432;2022-08-16T01:41:17;100147.00;;;26.30
21336;BMP180;10826;52.536;13.432;2022-08-16T01:43:46;100152.00;;;26.30
21336;BMP180;10826;52.536;13.432;2022-08-16T01:46:34;100177.00;;;26.30
21336;BMP180;10826;52.536;13.432;2022-08-16T01:51:32;100179.00;;;26.20
21336;BMP180;10826;52.536;13.432;2022-08-16T01:53:58;100182.00;;;26.20
21336;BMP180;10826;52.536;13.432;2022-08-16T01:56:25;100169.00;;;26.30
21336;BMP180;10826;52.536;13.432;2022-08-16T01:58:53;100190.00;;;26.20
21336;BMP180;10826;52.536;13.432;2022-08-16T02:01:20;100094.00;;;26.20
21336;BMP180;10826;52.536;13.432;2022-08-16T02:03:46;100163.00;;;26.10
21336;BMP180;10826;52.536;13.432;2022-08-16T02:06:12;100170.00;;;26.20
21336;BMP180;10826;52.536;13.432;2022-08-16T02:08:38;100148.00;;;26.20
21336;BMP180;10826;52.536;13.432;2022-08-16T02:11:07;100156.00;;;26.20
21336;BMP180;10826;52.536;13.432;2022-08-16T02:13:36;100141.00;;;26.20
21336;BMP180;10826;52.536;13.432;2022-08-16T02:16:03;100084.00;;;26.10
21336;BMP180;10826;52.536;13.432;2022-08-16T02:18:30;100147.00;;;26.20
21336;BMP180;10826;52.536;13.432;2022-08-16T02:20:56;100110.00;;;26.20
21336;BMP180;10826;52.536;13.432;2022-08-16T02:23:22;100168.00;;;26.20
21336;BMP180;10826;52.536;13.432;2022-08-16T02:25:48;100169.00;;;26.10
21336;BMP180;10826;52.536;13.432;2022-08-16T02:28:16;100161.00;;;26.10
21336;BMP180;10826;52.536;13.432;2022-08-16T02:30:42;100163.00;;;26.10
21336;BMP180;10826;52.536;13.432;2022-08-16T02:33:10;100175.00;;;26.10
21336;BMP180;10826;52.536;13.432;2022-08-16T02:35:37;100174.00;;;26.00
21336;BMP180;10826;52.536;13.432;2022-08-16T02:38:04;100157.00;;;26.10
21336;BMP180;10826;52.536;13.432;2022-08-16T02:40:31;100162.00;;;26.10
21336;BMP180;10826;52.536;13.432;2022-08-16T02:42:58;100138.00;;;26.10
21336;BMP180;10826;52.536;13.432;2022-08-16T02:45:26;100173.00;;;26.10
21336;BMP180;10826;52.536;13.432;2022-08-16T02:47:54;100170.00;;;26.00
21336;BMP180;10826;52.536;13.432;2022-08-16T02:50:20;100166.00;;;26.10
21336;BMP180;10826;52.536;13.432;2022-08-16T02:52:47;100176.00;;;26.00
21336;BMP180;10826;52.536;13.432;2022-08-16T02:55:13;100148.00;;;26.00
21336;BMP180;10826;52.536;13.432;2022-08-16T02:57:39;100180.00;;;26.00
21336;BMP180;10826;52.536;13.432;2022-08-16T03:00:10;100177.00;;;26.00
21336;BMP180;10826;52.536;13.432;2022-08-16T03:02:39;100186.00;;;26.00
21336;BMP180;10826;52.536;13.432;2022-08-16T03:05:08;100178.00;;;26.00
21336;BMP180;10826;52.536;13.432;2022-08-16T03:07:34;100177.00;;;26.00
21336;BMP180;10826;52.536;13.432;2022-08-16T03:10:01;100175.00;;;26.00
21336;BMP180;10826;52.536;13.432;2022-08-16T03:12:27;100203.00;;;26.00
21336;BMP180;10826;52.536;13.432;2022-08-16T03:14:53;100172.00;;;26.00
21336;BMP180;10826;52.536;13.432;2022-08-16T03:17:19;100163.00;;;25.90
21336;BMP180;10826;52.536;13.432;2022-08-16T03:19:45;100139.00;;;25.90
21336;BMP180;10826;52.536;13.432;2022-08-16T03:22:12;100191.00;;;25.90
21336;BMP180;10826;52.536;13.432;2022-08-16T03:24:38;100184.00;;;25.90
21336;BMP180;10826;52.536;13.432;2022-08-16T03:27:04;100187.00;;;25.90
21336;BMP180;10826;52.536;13.432;2022-08-16T03:29:32;100193.00;;;25.90
21336;BMP180;10826;52.536;13.432;2022-08-16T03:32:00;100184.00;;;25.90
21336;BMP180;10826;52.536;13.432;2022-08-16T03:34:28;100196.00;;;25.90
21336;BMP180;10826;52.536;13.432;2022-08-16T03:36:54;100193.00;;;25.90
21336;BMP180;10826;52.536;13.432;2022-08-16T03:39:21;100172.00;;;25.80
21336;BMP180;10826;52.536;13.432;2022-08-16T03:41:48;100186.00;;;25.80
21336;BMP180;10826;52.536;13.432;2022-08-16T03:44:15;100176.00;;;25.80
21336;BMP180;10826;52.536;13.432;2022-08-16T03:46:41;100200.00;;;25.90
21336;BMP180;10826;52.536;13.432;2022-08-16T03:49:08;100203.00;;;25.90
21336;BMP180;10826;52.536;13.432;2022-08-16T03:51:35;100182.00;;;25.80
21336;BMP180;10826;52.536;13.432;2022-08-16T03:54:01;100198.00;;;25.80
21336;BMP180;10826;52.536;13.432;2022-08-16T03:56:28;100199.00;;;25.80
21336;BMP180;10826;52.536;13.432;2022-08-16T03:58:54;100169.00;;;25.80
21336;BMP180;10826;52.536;13.432;2022-08-16T04:01:22;100193.00;;;25.80
21336;BMP180;10826;52.536;13.432;2022-08-16T04:03:50;100196.00;;;25.80
21336;BMP180;10826;52.536;13.432;2022-08-16T04:06:16;100162.00;;;25.80
21336;BMP180;10826;52.536;13.432;2022-08-16T04:12:32;100221.00;;;25.60
21336;BMP180;10826;52.536;13.432;2022-08-16T04:15:01;100214.00;;;25.80
21336;BMP180;10826;52.536;13.432;2022-08-16T04:17:28;100158.00;;;25.80
21336;BMP180;10826;52.536;13.432;2022-08-16T04:19:55;100195.00;;;25.80
21336;BMP180;10826;52.536;13.432;2022-08-16T04:22:22;100215.00;;;25.80
21336;BMP180;10826;52.536;13.432;2022-08-16T04:24:48;100219.00;;;25.90
21336;BMP180;10826;52.536;13.432;2022-08-16T04:27:14;100209.00;;;25.80
21336;BMP180;10826;52.536;13.432;2022-08-16T04:29:40;100228.00;;;25.90
21336;BMP180;10826;52.536;13.432;2022-08-16T04:32:06;100214.00;;;25.90
21336;BMP180;10826;52.536;13.432;2022-08-16T04:34:35;100205.00;;;25.90
21336;BMP180;10826;52.536;13.432;2022-08-16T04:37:02;100229.00;;;25.90
21336;BMP180;10826;52.536;13.432;2022-08-16T04:39:32;100232.00;;;25.90
21336;BMP180;10826;52.536;13.432;2022-08-16T04:41:59;100206.00;;;25.90
21336;BMP180;10826;52.536;13.432;2022-08-16T04:44:25;100228.00;;;26.00
21336;BMP180;10826;52.536;13.432;2022-08-16T04:46:52;100227.00;;;26.00
21336;BMP180;10826;52.536;13.432;2022-08-16T04:49:19;100237.00;;;26.00
21336;BMP180;10826;52.536;13.432;2022-08-16T04:51:44;100236.00;;;25.80
21336;BMP180;10826;52.536;13.432;2022-08-16T04:54:10;100209.00;;;26.10
21336;BMP180;10826;52.536;13.432;2022-08-16T04:56:37;100216.00;;;26.10
21336;BMP180;10826;52.536;13.432;2022-08-16T04:59:04;100212.00;;;26.20
21336;BMP180;10826;52.536;13.432;2022-08-16T05:01:30;100239.00;;;26.20
21336;BMP180;10826;52.536;13.432;2022-08-16T05:03:56;100241.00;;;26.20
21336;BMP180;10826;52.536;13.432;2022-08-16T05:06:22;100236.00;;;26.20
21336;BMP180;10826;52.536;13.432;2022-08-16T05:08:48;100253.00;;;26.30
21336;BMP180;10826;52.536;13.432;2022-08-16T05:11:15;100232.00;;;26.10
21336;BMP180;10826;52.536;13.432;2022-08-16T05:13:45;100243.00;;;26.30
21336;BMP180;10826;52.536;13.432;2022-08-16T05:16:18;100230.00;;;26.30
21336;BMP180;10826;52.536;13.432;2022-08-16T05:18:46;100258.00;;;26.40
21336;BMP180;10826;52.536;13.432;2022-08-16T05:21:12;100189.00;;;26.40
21336;BMP180;10826;52.536;13.432;2022-08-16T05:23:38;100226.00;;;26.40
21336;BMP180;10826;52.536;13.432;2022-08-16T05:26:04;100254.00;;;26.50
21336;BMP180;10826;52.536;13.432;2022-08-16T05:28:30;100239.00;;;26.60
21336;BMP180;10826;52.536;13.432;2022-08-16T05:30:56;100257.00;;;26.60
21336;BMP180;10826;52.536;13.432;2022-08-16T05:33:22;100230.00;;;26.60
21336;BMP180;10826;52.536;13.432;2022-08-16T05:35:50;100247.00;;;26.50
21336;BMP180;10826;52.536;13.432;2022-08-16T05:38:16;100248.00;;;26.70
21336;BMP180;10826;52.536;13.432;2022-08-16T05:40:44;100198.00;;;26.80
21336;BMP180;10826;52.536;13.432;2022-08-16T05:43:10;100226.00;;;26.70
21336;BMP180;10826;52.536;13.432;2022-08-16T05:45:37;100205.00;;;26.90
21336;BMP180;10826;52.536;13.432;2022-08-16T05:48:03;100257.00;;;27.10
21336;BMP180;10826;52.536;13.432;2022-08-16T05:50:29;100236.00;;;27.10
21336;BMP180;10826;52.536;13.432;2022-08-16T05:52:55;100256.00;;;27.20
21336;BMP180;10826;52.536;13.432;2022-08-16T05:55:21;100246.00;;;27.30
21336;BMP180;10826;52.536;13.432;2022-08-16T05:57:47;100262.00;;;27.40
21336;BMP180;10826;52.536;13.432;2022-08-16T06:00:14;100258.00;;;27.60
21336;BMP180;10826;52.536;13.432;2022-08-16T06:02:41;100259.00;;;27.70
21336;BMP180;10826;52.536;13.432;2022-08-16T06:05:09;100258.00;;;27.90
21336;BMP180;10826;52.536;13.432;2022-08-16T06:07:35;100242.00;;;28.10
21336;BMP180;10826;52.536;13.432;2022-08-16T06:10:03;100251.00;;;28.20
21336;BMP180;10826;52.536;13.432;2022-08-16T06:12:30;100257.00;;;28.40
21336;BMP180;10826;52.536;13.432;2022-08-16T06:14:59;100271.00;;;28.50
21336;BMP180;10826;52.536;13.432;2022-08-16T06:17:28;100261.00;;;28.70
21336;BMP180;10826;52.536;13.432;2022-08-16T06:19:55;100263.00;;;28.80
21336;BMP180;10826;52.536;13.432;2022-08-16T06:22:21;100255.00;;;28.90
21336;BMP180;10826;52.536;13.432;2022-08-16T06:24:47;100258.00;;;29.00
21336;BMP180;10826;52.536;13.432;2022-08-16T06:27:13;100264.00;;;29.00
21336;BMP180;10826;52.536;13.432;2022-08-16T06:29:39;100274.00;;;29.00
21336;BMP180;10826;52.536;13.432;2022-08-16T06:32:05;100266.00;;;29.00
21336;BMP180;10826;52.536;13.432;2022-08-16T06:34:31;100281.00;;;29.00
21336;BMP180;10826;52.536;13.432;2022-08-16T06:36:57;100280.00;;;29.00
21336;BMP180;10826;52.536;13.432;2022-08-16T06:39:23;100280.00;;;29.00
21336;BMP180;10826;52.536;13.432;2022-08-16T06:41:49;100298.00;;;29.00
21336;BMP180;10826;52.536;13.432;2022-08-16T06:44:15;100289.00;;;29.00
21336;BMP180;10826;52.536;13.432;2022-08-16T06:46:42;100301.00;;;28.90
21336;BMP180;10826;52.536;13.432;2022-08-16T06:49:10;100296.00;;;29.00
21336;BMP180;10826;52.536;13.432;2022-08-16T06:51:39;100317.00;;;29.00
21336;BMP180;10826;52.536;13.432;2022-08-16T06:54:06;100302.00;;;29.00
21336;BMP180;10826;52.536;13.432;2022-08-16T06:56:33;100305.00;;;29.00
21336;BMP180;10826;52.536;13.432;2022-08-16T06:59:00;100301.00;;;29.10
21336;BMP180;10826;52.536;13.432;2022-08-16T07:01:26;100308.00;;;29.10
21336;BMP180;10826;52.536;13.432;2022-08-16T07:03:54;100298.00;;;29.10
21336;BMP180;10826;52.536;13.432;2022-08-16T07:06:21;100284.00;;;29.10
21336;BMP180;10826;52.536;13.432;2022-08-16T07:08:48;100296.00;;;29.20
21336;BMP180;10826;52.536;13.432;2022-08-16T07:11:16;100315.00;;;29.20
21336;BMP180;10826;52.536;13.432;2022-08-16T07:13:42;100285.00;;;29.20
21336;BMP180;10826;52.536;13.432;2022-08-16T07:16:12;100325.00;;;29.20
21336;BMP180;10826;52.536;13.432;2022-08-16T07:18:44;100318.00;;;29.20
21336;BMP180;10826;52.536;13.432;2022-08-16T07:21:11;100303.00;;;29.30
21336;BMP180;10826;52.536;13.432;2022-08-16T07:23:40;100301.00;;;29.20
21336;BMP180;10826;52.536;13.432;2022-08-16T07:26:10;100306.00;;;29.30
21336;BMP180;10826;52.536;13.432;2022-08-16T07:28:38;100320.00;;;29.30
21336;BMP180;10826;52.536;13.432;2022-08-16T07:31:05;100324.00;;;29.30
21336;BMP180;10826;52.536;13.432;2022-08-16T07:33:34;100303.00;;;29.40
21336;BMP180;10826;52.536;13.432;2022-08-16T07:36:07;100332.00;;;29.40
21336;BMP180;10826;52.536;13.432;2022-08-16T07:38:34;100322.00;;;29.50
21336;BMP180;10826;52.536;13.432;2022-08-16T07:41:01;100316.00;;;29.50
21336;BMP180;10826;52.536;13.432;2022-08-16T07:43:28;100335.00;;;29.50
21336;BMP180;10826;52.536;13.432;2022-08-16T07:45:54;100313.00;;;29.60
21336;BMP180;10826;52.536;13.432;2022-08-16T07:48:21;100345.00;;;29.60
21336;BMP180;10826;52.536;13.432;2022-08-16T07:50:46;100338.00;;;29.70
21336;BMP180;10826;52.536;13.432;2022-08-16T07:53:13;100331.00;;;29.70
21336;BMP180;10826;52.536;13.432;2022-08-16T07:55:40;100330.00;;;29.70
21336;BMP180;10826;52.536;13.432;2022-08-16T07:58:06;100338.00;;;29.70
21336;BMP180;10826;52.536;13.432;2022-08-16T08:00:34;100324.00;;;29.80
21336;BMP180;10826;52.536;13.432;2022-08-16T08:03:01;100289.00;;;29.70
21336;BMP180;10826;52.536;13.432;2022-08-16T08:05:27;100359.00;;;29.80
21336;BMP180;10826;52.536;13.432;2022-08-16T08:07:54;100352.00;;;29.90
21336;BMP180;10826;52.536;13.432;2022-08-16T08:10:24;100331.00;;;29.80
21336;BMP180;10826;52.536;13.432;2022-08-16T08:12:52;100353.00;;;29.90
21336;BMP180;10826;52.536;13.432;2022-08-16T08:15:21;100351.00;;;30.00
21336;BMP180;10826;52.536;13.432;2022-08-16T08:17:47;100356.00;;;30.00
21336;BMP180;10826;52.536;13.432;2022-08-16T08:20:20;100330.00;;;30.00
21336;BMP180;10826;52.536;13.432;2022-08-16T08:22:48;100311.00;;;30.00
21336;BMP180;10826;52.536;13.432;2022-08-16T08:25:15;100354.00;;;30.10
21336;BMP180;10826;52.536;13.432;2022-08-16T08:27:40;100336.00;;;30.00
21336;BMP180;10826;52.536;13.432;2022-08-16T08:30:09;100364.00;;;30.20
21336;BMP180;10826;52.536;13.432;2022-08-16T08:32:36;100354.00;;;30.20
21336;BMP180;10826;52.536;13.432;2022-08-16T08:35:04;100376.00;;;30.30
21336;BMP180;10826;52.536;13.432;2022-08-16T08:37:34;100388.00;;;30.30
21336;BMP180;10826;52.536;13.432;2022-08-16T08:40:03;100344.00;;;30.30
21336;BMP180;10826;52.536;13.432;2022-08-16T08:42:29;100381.00;;;30.40
21336;BMP180;10826;52.536;13.432;2022-08-16T08:44:56;100388.00;;;30.40
21336;BMP180;10826;52.536;13.432;2022-08-16T08:47:23;100378.00;;;30.50
21336;BMP180;10826;52.536;13.432;2022-08-16T08:49:49;100383.00;;;30.50
21336;BMP180;10826;52.536;13.432;2022-08-16T08:52:15;100372.00;;;30.60
21336;BMP180;10826;52.536;13.432;2022-08-16T08:54:41;100396.00;;;30.60
21336;BMP180;10826;52.536;13.432;2022-08-16T08:57:07;100369.00;;;30.70
21336;BMP180;10826;52.536;13.432;2022-08-16T08:59:33;100379.00;;;30.70
21336;BMP180;10826;52.536;13.432;2022-08-16T09:02:00;100385.00;;;30.80
21336;BMP180;10826;52.536;13.432;2022-08-16T09:04:27;100378.00;;;30.80
21336;BMP180;10826;52.536;13.432;2022-08-16T09:06:55;100375.00;;;30.90
21336;BMP180;10826;52.536;13.432;2022-08-16T09:09:22;100372.00;;;30.90
21336;BMP180;10826;52.536;13.432;2022-08-16T09:11:50;100360.00;;;31.00
21336;BMP180;10826;52.536;13.432;2022-08-16T09:14:16;100396.00;;;31.00
21336;BMP180;10826;52.536;13.432;2022-08-16T09:16:42;100396.00;;;31.10
21336;BMP180;10826;52.536;13.432;2022-08-16T09:19:09;100390.00;;;31.10
21336;BMP180;10826;52.536;13.432;2022-08-16T09:21:35;100395.00;;;31.10
21336;BMP180;10826;52.536;13.432;2022-08-16T09:24:03;100403.00;;;31.20
21336;BMP180;10826;52.536;13.432;2022-08-16T09:26:30;100362.00;;;31.20
21336;BMP180;10826;52.536;13.432;2022-08-16T09:28:56;100357.00;;;31.30
21336;BMP180;10826;52.536;13.432;2022-08-16T09:31:22;100376.00;;;31.30
21336;BMP180;10826;52.536;13.432;2022-08-16T09:33:50;100394.00;;;31.30
21336;BMP180;10826;52.536;13.432;2022-08-16T09:36:17;100392.00;;;31.40
21336;BMP180;10826;52.536;13.432;2022-08-16T09:38:45;100372.00;;;31.40
21336;BMP180;10826;52.536;13.432;2022-08-16T09:41:11;100371.00;;;31.50
21336;BMP180;10826;52.536;13.432;2022-08-16T09:43:38;100397.00;;;31.50
21336;BMP180;10826;52.536;13.432;2022-08-16T09:46:06;100389.00;;;31.60
21336;BMP180;10826;52.536;13.432;2022-08-16T09:48:34;100385.00;;;31.60
21336;BMP180;10826;52.536;13.432;2022-08-16T09:51:02;100367.00;;;31.60
21336;BMP180;10826;52.536;13.432;2022-08-16T09:53:28;100332.00;;;31.60
21336;BMP180;10826;52.536;13.432;2022-08-16T09:55:55;100394.00;;;31.70
21336;BMP180;10826;52.536;13.432;2022-08-16T09:58:25;100379.00;;;31.70
21336;BMP180;10826;52.536;13.432;2022-08-16T10:00:53;100386.00;;;31.70
21336;BMP180;10826;52.536;13.432;2022-08-16T10:03:20;100386.00;;;31.70
21336;BMP180;10826;52.536;13.432;2022-08-16T10:05:48;100377.00;;;31.80
21336;BMP180;10826;52.536;13.432;2022-08-16T10:08:15;100394.00;;;31.80
21336;BMP180;10826;52.536;13.432;2022-08-16T10:10:44;100389.00;;;31.90
21336;BMP180;10826;52.536;13.432;2022-08-16T10:13:31;100399.00;;;31.90
21336;BMP180;10826;52.536;13.432;2022-08-16T10:15:59;100391.00;;;31.90
21336;BMP180;10826;52.536;13.432;2022-08-16T10:18:29;100383.00;;;32.00
21336;BMP180;10826;52.536;13.432;2022-08-16T10:20:56;100367.00;;;32.00
21336;BMP180;10826;52.536;13.432;2022-08-16T10:23:25;100388.00;;;32.10
21336;BMP180;10826;52.536;13.432;2022-08-16T10:25:52;100377.00;;;32.20
21336;BMP180;10826;52.536;13.432;2022-08-16T10:28:18;100359.00;;;32.30
21336;BMP180;10826;52.536;13.432;2022-08-16T10:30:44;100382.00;;;32.40
21336;BMP180;10826;52.536;13.432;2022-08-16T10:33:12;100364.00;;;32.50
21336;BMP180;10826;52.536;13.432;2022-08-16T10:35:40;100379.00;;;32.60
21336;BMP180;10826;52.536;13.432;2022-08-16T10:38:07;100375.00;;;32.70
21336;BMP180;10826;52.536;13.432;2022-08-16T10:40:34;100377.00;;;32.80
21336;BMP180;10826;52.536;13.432;2022-08-16T10:43:00;100370.00;;;32.80
21336;BMP180;10826;52.536;13.432;2022-08-16T10:45:31;100381.00;;;33.00
21336;BMP180;10826;52.536;13.432;2022-08-16T10:47:58;100386.00;;;33.10
21336;BMP180;10826;52.536;13.432;2022-08-16T10:50:26;100384.00;;;33.20
21336;BMP180;10826;52.536;13.432;2022-08-16T10:52:53;100377.00;;;33.40
21336;BMP180;10826;52.536;13.432;2022-08-16T10:55:20;100382.00;;;33.50
21336;BMP180;10826;52.536;13.432;2022-08-16T10:57:47;100380.00;;;33.60
21336;BMP180;10826;52.536;13.432;2022-08-16T11:00:17;100352.00;;;33.80
21336;BMP180;10826;52.536;13.432;2022-08-16T11:02:43;100361.00;;;33.90
21336;BMP180;10826;52.536;13.432;2022-08-16T11:05:14;100357.00;;;34.00
21336;BMP180;10826;52.536;13.432;2022-08-16T11:07:45;100381.00;;;34.10
21336;BMP180;10826;52.536;13.432;2022-08-16T11:10:18;100387.00;;;34.10
21336;BMP180;10826;52.536;13.432;2022-08-16T11:12:44;100382.00;;;34.10
21336;BMP180;10826;52.536;13.432;2022-08-16T11:15:11;100382.00;;;34.20
21336;BMP180;10826;52.536;13.432;2022-08-16T11:17:37;100362.00;;;34.30
21336;BMP180;10826;52.536;13.432;2022-08-16T11:20:09;100378.00;;;34.30
21336;BMP180;10826;52.536;13.432;2022-08-16T11:22:35;100375.00;;;34.40
21336;BMP180;10826;52.536;13.432;2022-08-16T11:25:02;100392.00;;;34.50
21336;BMP180;10826;52.536;13.432;2022-08-16T11:27:28;100389.00;;;34.60
21336;BMP180;10826;52.536;13.432;2022-08-16T11:29:56;100382.00;;;34.70
21336;BMP180;10826;52.536;13.432;2022-08-16T11:32:25;100378.00;;;34.80
21336;BMP180;10826;52.536;13.432;2022-08-16T11:34:51;100374.00;;;34.70
21336;BMP180;10826;52.536;13.432;2022-08-16T11:37:17;100354.00;;;34.90
21336;BMP180;10826;52.536;13.432;2022-08-16T11:39:44;100412.00;;;35.00
21336;BMP180;10826;52.536;13.432;2022-08-16T11:42:10;100385.00;;;35.00
21336;BMP180;10826;52.536;13.432;2022-08-16T11:44:35;100384.00;;;35.00
21336;BMP180;10826;52.536;13.432;2022-08-16T11:47:01;100401.00;;;35.10
21336;BMP180;10826;52.536;13.432;2022-08-16T11:49:27;100381.00;;;35.00
21336;BMP180;10826;52.536;13.432;2022-08-16T11:51:53;100379.00;;;34.90
21336;BMP180;10826;52.536;13.432;2022-08-16T11:54:19;100390.00;;;34.80
21336;BMP180;10826;52.536;13.432;2022-08-16T11:56:46;100398.00;;;34.70
21336;BMP180;10826;52.536;13.432;2022-08-16T11:59:12;100388.00;;;34.60
21336;BMP180;10826;52.536;13.432;2022-08-16T12:01:38;100394.00;;;34.60
21336;BMP180;10826;52.536;13.432;2022-08-16T12:04:04;100381.00;;;34.60
21336;BMP180;10826;52.536;13.432;2022-08-16T12:06:30;100372.00;;;34.60
21336;BMP180;10826;52.536;13.432;2022-08-16T12:08:57;100359.00;;;34.70
21336;BMP180;10826;52.536;13.432;2022-08-16T12:11:25;100385.00;;;34.80
21336;BMP180;10826;52.536;13.432;2022-08-16T12:13:52;100390.00;;;34.90
21336;BMP180;10826;52.536;13.432;2022-08-16T12:16:19;100391.00;;;34.90
21336;BMP180;10826;52.536;13.432;2022-08-16T12:18:45;100395.00;;;35.00
21336;BMP180;10826;52.536;13.432;2022-08-16T12:21:11;100397.00;;;35.00
21336;BMP180;10826;52.536;13.432;2022-08-16T12:23:38;100400.00;;;35.10
21336;BMP180;10826;52.536;13.432;2022-08-16T12:26:05;100392.00;;;35.10
21336;BMP180;10826;52.536;13.432;2022-08-16T12:28:32;100403.00;;;35.10
21336;BMP180;10826;52.536;13.432;2022-08-16T12:31:00;100371.00;;;35.10
21336;BMP180;10826;52.536;13.432;2022-08-16T12:33:26;100395.00;;;35.10
21336;BMP180;10826;52.536;13.432;2022-08-16T12:35:52;100320.00;;;35.10
21336;BMP180;10826;52.536;13.432;2022-08-16T12:38:18;100380.00;;;35.10
21336;BMP180;10826;52.536;13.432;2022-08-16T12:40:47;100385.00;;;35.10
21336;BMP180;10826;52.536;13.432;2022-08-16T12:43:16;100372.00;;;35.00
21336;BMP180;10826;52.536;13.432;2022-08-16T12:45:50;100382.00;;;35.10
21336;BMP180;10826;52.536;13.432;2022-08-16T12:48:23;100386.00;;;35.00
21336;BMP180;10826;52.536;13.432;2022-08-16T12:51:13;100387.00;;;35.00
21336;BMP180;10826;52.536;13.432;2022-08-16T12:53:40;100385.00;;;35.00
21336;BMP180;10826;52.536;13.432;2022-08-16T12:56:08;100390.00;;;35.00
21336;BMP180;10826;52.536;13.432;2022-08-16T12:58:40;100384.00;;;35.20
21336;BMP180;10826;52.536;13.432;2022-08-16T13:01:08;100381.00;;;35.20
21336;BMP180;10826;52.536;13.432;2022-08-16T13:03:34;100387.00;;;35.20
21336;BMP180;10826;52.536;13.432;2022-08-16T13:06:00;100392.00;;;35.20
21336;BMP180;10826;52.536;13.432;2022-08-16T13:08:26;100380.00;;;35.20
21336;BMP180;10826;52.536;13.432;2022-08-16T13:10:53;100388.00;;;35.10
21336;BMP180;10826;52.536;13.432;2022-08-16T13:13:23;100377.00;;;35.10
21336;BMP180;10826;52.536;13.432;2022-08-16T13:15:53;100387.00;;;35.00
21336;BMP180;10826;52.536;13.432;2022-08-16T13:18:20;100387.00;;;35.00
21336;BMP180;10826;52.536;13.432;2022-08-16T13:20:47;100382.00;;;34.90
21336;BMP180;10826;52.536;13.432;2022-08-16T13:23:15;100383.00;;;34.90
21336;BMP180;10826;52.536;13.432;2022-08-16T13:25:45;100392.00;;;34.90
21336;BMP180;10826;52.536;13.432;2022-08-16T13:28:13;100383.00;;;34.80
21336;BMP180;10826;52.536;13.432;2022-08-16T13:30:48;100380.00;;;34.90
21336;BMP180;10826;52.536;13.432;2022-08-16T13:33:20;100401.00;;;35.00
21336;BMP180;10826;52.536;13.432;2022-08-16T13:35:50;100379.00;;;35.10
21336;BMP180;10826;52.536;13.432;2022-08-16T13:38:18;100386.00;;;35.20
21336;BMP180;10826;52.536;13.432;2022-08-16T13:40:44;100366.00;;;35.30
21336;BMP180;10826;52.536;13.432;2022-08-16T13:43:10;100386.00;;;35.30
21336;BMP180;10826;52.536;13.432;2022-08-16T13:45:36;100379.00;;;35.30
21336;BMP180;10826;52.536;13.432;2022-08-16T13:48:03;100378.00;;;35.40
21336;BMP180;10826;52.536;13.432;2022-08-16T13:50:31;100393.00;;;35.40
21336;BMP180;10826;52.536;13.432;2022-08-16T13:52:58;100385.00;;;35.40
21336;BMP180;10826;52.536;13.432;2022-08-16T13:55:24;100385.00;;;35.50